Details for Delta Airlines at KBOS




Go Back


Latest METAR
Local Time

KBOS 240654Z 05007KT 10SM FEW220 13/12 A3001 RMK AO2 SLP162 T01280117 $

24/05/2018, 03:48:18

Description
Results
Delta Airlines Logo
Number of Pilots based at KBOS
0 Pilots Based here
Number of Delta Airlines Flights Departed from KBOS
1 Flights Departed
Number of Delta Airlines Flights Arrived at KBOS
3 Flights Arrived
Number of Delta Airlines Schedules Departing from KBOS
179 Schedules
Number of Delta Airlines Schedules Arriving at KBOS
169 Schedules
Number of Delta Airlines Schedules Departing from KBOS availible today
107 Schedules Today
Number of Delta Airlines Schedules Arriving at KBOS availible today
99 Schedules Today
Average Landing Rate at KBOS
-255 fpm
Delta Airlines Average Landing Rate at KBOS
-99 fpm
Total Fuel Purchased at KBOS by Delta Airlines
2,296.54 kgs / 5,062.95 lbs

Pilots Based at KBOS


Pilot ID
Pilot Name
Pilot Rank
No. of Flights
No. of Flying Hours
There are no pilots assigned to this hub!   Will you be the first?
Content